createdAt,value
2023-02-11T00:02:18.719Z,99881.10
2023-02-11T00:04:53.994Z,99879.80
2023-02-11T00:07:26.586Z,99880.13
2023-02-11T00:09:57.065Z,99884.76
2023-02-11T00:12:31.820Z,99885.10
2023-02-11T00:15:02.534Z,99888.35
2023-02-11T00:17:36.254Z,99882.28
2023-02-11T00:20:08.311Z,99886.63
2023-02-11T00:22:39.391Z,99884.64
2023-02-11T00:25:09.743Z,99886.65
2023-02-11T00:27:39.278Z,99886.36
2023-02-11T00:30:11.827Z,99883.42
2023-02-11T00:32:47.343Z,99884.71
2023-02-11T00:35:18.191Z,99880.80
2023-02-11T00:37:48.611Z,99878.15
2023-02-11T00:40:19.190Z,99876.80
2023-02-11T00:42:49.260Z,99873.02
2023-02-11T00:45:21.816Z,99878.35
2023-02-11T00:47:53.228Z,99878.38
2023-02-11T00:50:23.899Z,99874.95
2023-02-11T00:52:55.339Z,99879.36
2023-02-11T00:55:25.470Z,99872.08
2023-02-11T00:57:55.588Z,99873.96
2023-02-11T01:00:25.058Z,99863.95
2023-02-11T01:02:55.323Z,99860.45
2023-02-11T01:05:25.972Z,99855.52
2023-02-11T01:07:56.492Z,99852.25
2023-02-11T01:10:26.731Z,99850.29
2023-02-11T01:12:57.562Z,99844.90
2023-02-11T01:15:30.177Z,99842.33
2023-02-11T01:18:05.236Z,99840.08
2023-02-11T01:20:36.924Z,99835.13
2023-02-11T01:23:08.064Z,99831.96
2023-02-11T01:25:39.492Z,99832.52
2023-02-11T01:28:25.252Z,99830.66
2023-02-11T01:30:58.926Z,99827.64
2023-02-11T01:33:30.204Z,99825.80
2023-02-11T01:36:05.037Z,99820.75
2023-02-11T01:38:36.510Z,99818.59
2023-02-11T01:41:11.333Z,99812.40
2023-02-11T01:43:45.905Z,99811.77
2023-02-11T01:46:38.961Z,99810.27
2023-02-11T01:49:17.206Z,99810.27
2023-02-11T01:52:04.206Z,99809.84
2023-02-11T01:54:57.625Z,99809.59
2023-02-11T01:57:31.637Z,99804.33
2023-02-11T02:00:16.564Z,99807.38
2023-02-11T02:03:00.961Z,99807.19
2023-02-11T02:06:04.247Z,99807.05
2023-02-11T02:08:43.043Z,99805.15
2023-02-11T02:11:13.145Z,99797.79
2023-02-11T02:13:45.587Z,99797.72
2023-02-11T02:16:18.996Z,99792.14
2023-02-11T02:19:30.184Z,99784.92
2023-02-11T02:22:25.307Z,99788.66
2023-02-11T02:25:04.983Z,99785.33
2023-02-11T02:27:57.152Z,99781.14
2023-02-11T02:30:46.529Z,99780.89
2023-02-11T02:33:34.361Z,99780.59
2023-02-11T02:36:15.939Z,99778.34
2023-02-11T02:38:49.635Z,99777.95
2023-02-11T02:41:32.918Z,99773.45
2023-02-11T02:44:05.719Z,99765.23
2023-02-11T02:46:37.335Z,99763.08
2023-02-11T02:49:17.067Z,99766.60
2023-02-11T02:52:11.906Z,99767.42
2023-02-11T02:54:57.244Z,99770.31
2023-02-11T02:57:50.513Z,99765.42
2023-02-11T03:01:02.467Z,99767.09
2023-02-11T03:03:45.757Z,99770.67
2023-02-11T03:06:34.962Z,99767.90
2023-02-11T03:10:02.882Z,99764.13
2023-02-11T03:12:35.438Z,99761.85
2023-02-11T03:15:07.435Z,99760.13
2023-02-11T03:17:42.416Z,99758.85
2023-02-11T03:20:17.655Z,99762.41
2023-02-11T03:22:53.513Z,99767.08
2023-02-11T03:25:36.336Z,99769.66
2023-02-11T03:28:39.974Z,99776.58
2023-02-11T03:31:15.600Z,99767.30
2023-02-11T03:34:12.972Z,99761.73
2023-02-11T03:36:57.486Z,99758.06
2023-02-11T03:39:37.562Z,99759.59
2023-02-11T03:42:10.166Z,99758.55
2023-02-11T03:44:54.544Z,99759.34
2023-02-11T03:47:28.414Z,99759.02
2023-02-11T03:50:01.434Z,99756.77
2023-02-11T03:52:34.240Z,99762.68
2023-02-11T03:55:13.553Z,99760.63
2023-02-11T03:57:43.949Z,99758.48
2023-02-11T04:00:15.905Z,99753.88
2023-02-11T04:02:48.305Z,99755.27
2023-02-11T04:05:18.604Z,99754.84
2023-02-11T04:07:48.413Z,99752.00
2023-02-11T04:10:18.814Z,99745.48
2023-02-11T04:12:48.584Z,99747.31
2023-02-11T04:15:21.002Z,99743.02
2023-02-11T04:17:51.294Z,99739.41
2023-02-11T04:20:21.257Z,99739.80
2023-02-11T04:22:51.025Z,99743.63
2023-02-11T04:25:23.423Z,99739.91
2023-02-11T04:27:53.895Z,99735.05
2023-02-11T04:30:23.454Z,99733.02
2023-02-11T04:32:54.674Z,99729.39
2023-02-11T04:35:23.937Z,99728.97
2023-02-11T04:37:54.261Z,99733.95
2023-02-11T04:40:23.946Z,99731.23
2023-02-11T04:42:56.276Z,99727.25
2023-02-11T04:45:32.799Z,99730.16
2023-02-11T04:48:04.836Z,99726.05
2023-02-11T04:50:36.249Z,99726.81
2023-02-11T04:53:05.680Z,99724.41
2023-02-11T04:55:35.192Z,99717.96
2023-02-11T04:58:06.338Z,99713.66
2023-02-11T05:00:35.197Z,99718.90
2023-02-11T05:03:04.215Z,99719.52
2023-02-11T05:05:37.125Z,99718.32
2023-02-11T05:08:08.596Z,99721.90
2023-02-11T05:10:39.380Z,99728.38
2023-02-11T05:13:09.406Z,99731.23
2023-02-11T05:15:39.996Z,99735.52
2023-02-11T05:18:09.475Z,99740.26
2023-02-11T05:20:39.754Z,99738.63
2023-02-11T05:23:12.487Z,99741.23
2023-02-11T05:25:42.014Z,99738.76
2023-02-11T05:28:13.253Z,99741.52
2023-02-11T05:30:43.226Z,99738.91
2023-02-11T05:33:15.276Z,99738.08
2023-02-11T05:35:52.497Z,99740.46
2023-02-11T05:38:29.586Z,99732.48
2023-02-11T05:41:01.403Z,99731.20
2023-02-11T05:43:31.286Z,99729.66
2023-02-11T05:46:21.154Z,99727.04
2023-02-11T05:48:50.688Z,99725.63
2023-02-11T05:51:21.085Z,99722.13
2023-02-11T05:53:51.978Z,99721.02
2023-02-11T05:56:21.284Z,99721.73
2023-02-11T05:58:50.815Z,99722.06
2023-02-11T06:01:20.745Z,99719.11
2023-02-11T06:03:55.323Z,99718.80
2023-02-11T06:06:25.914Z,99720.53
2023-02-11T06:08:56.694Z,99722.81
2023-02-11T06:11:38.647Z,99718.61
2023-02-11T06:14:07.909Z,99721.07
2023-02-11T06:16:47.826Z,99718.30
2023-02-11T06:19:20.158Z,99719.44
2023-02-11T06:21:50.057Z,99719.55
2023-02-11T06:24:47.841Z,99724.58
2023-02-11T06:27:12.975Z,99727.48
2023-02-11T06:29:42.898Z,99729.15
2023-02-11T06:32:33.552Z,99728.09
2023-02-11T06:35:04.302Z,99725.08
2023-02-11T06:37:35.643Z,99722.50
2023-02-11T06:40:05.125Z,99720.28
2023-02-11T06:42:35.125Z,99719.11
2023-02-11T06:45:11.557Z,99715.41
2023-02-11T06:47:43.655Z,99718.39
2023-02-11T06:50:15.555Z,99715.83
2023-02-11T06:52:48.217Z,99715.45
2023-02-11T06:55:18.265Z,99714.47
2023-02-11T06:57:50.577Z,99714.50
2023-02-11T07:00:22.695Z,99711.27
2023-02-11T07:02:55.319Z,99706.91
2023-02-11T07:05:24.776Z,99702.70
2023-02-11T07:07:56.131Z,99703.29
2023-02-11T07:10:25.727Z,99703.47
2023-02-11T07:12:58.457Z,99706.16
2023-02-11T07:15:29.234Z,99704.50
2023-02-11T07:18:01.207Z,99710.70
2023-02-11T07:20:31.539Z,99714.42
2023-02-11T07:23:03.547Z,99709.24
2023-02-11T07:25:39.104Z,99703.21
2023-02-11T07:28:08.503Z,99703.95
2023-02-11T07:30:38.266Z,99708.64
2023-02-11T07:33:07.878Z,99714.91
2023-02-11T07:35:37.481Z,99712.00
2023-02-11T07:38:07.691Z,99714.20
2023-02-11T07:40:39.915Z,99711.84
2023-02-11T07:43:12.076Z,99713.66
2023-02-11T07:45:41.205Z,99702.31
2023-02-11T07:48:11.028Z,99692.24
2023-02-11T07:50:40.640Z,99688.30
2023-02-11T07:53:11.290Z,99692.75
2023-02-11T07:55:44.493Z,99698.02
2023-02-11T07:58:17.434Z,99693.34
2023-02-11T08:03:45.175Z,99688.95
2023-02-11T08:06:18.661Z,99687.68
2023-02-11T08:08:48.726Z,99682.61
2023-02-11T08:11:25.949Z,99680.25
2023-02-11T08:13:58.026Z,99680.35
2023-02-11T08:16:35.056Z,99678.27
2023-02-11T08:19:07.253Z,99674.96
2023-02-11T08:21:37.285Z,99665.73
2023-02-11T08:24:07.512Z,99656.36
2023-02-11T08:26:38.013Z,99646.85
2023-02-11T08:29:12.124Z,99645.91
2023-02-11T08:31:45.865Z,99646.05
2023-02-11T08:34:19.501Z,99650.38
2023-02-11T08:36:49.659Z,99643.06
2023-02-11T08:39:22.379Z,99638.08
2023-02-11T08:41:54.712Z,99634.44
2023-02-11T08:44:25.904Z,99634.77
2023-02-11T08:46:56.320Z,99636.98
2023-02-11T08:49:25.733Z,99634.66
2023-02-11T08:52:04.702Z,99638.40
2023-02-11T08:54:34.108Z,99627.45
2023-02-11T08:57:06.083Z,99623.93
2023-02-11T08:59:36.183Z,99623.33
2023-02-11T09:02:12.994Z,99626.31
2023-02-11T09:04:42.866Z,99632.14
2023-02-11T09:07:13.861Z,99621.96
2023-02-11T09:09:44.838Z,99613.98
2023-02-11T09:12:14.378Z,99603.67
2023-02-11T09:14:45.550Z,99596.45
2023-02-11T09:17:16.535Z,99599.73
2023-02-11T09:19:52.086Z,99596.52
2023-02-11T09:22:30.164Z,99595.59
2023-02-11T09:24:59.457Z,99594.84
2023-02-11T09:27:34.992Z,99597.26
2023-02-11T09:30:10.630Z,99596.16
2023-02-11T09:32:43.029Z,99592.70
2023-02-11T09:35:12.037Z,99588.89
2023-02-11T09:37:41.266Z,99579.39
2023-02-11T09:40:23.604Z,99588.01
2023-02-11T09:43:19.131Z,99580.23
2023-02-11T09:46:00.274Z,99582.52
2023-02-11T09:48:52.761Z,99580.16
2023-02-11T09:52:16.392Z,99571.93
2023-02-11T09:55:19.930Z,99570.99
2023-02-11T09:57:51.694Z,99575.20
2023-02-11T10:00:35.843Z,99571.84
2023-02-11T10:03:09.024Z,99563.39
2023-02-11T10:06:39.737Z,99561.45
2023-02-11T10:09:36.707Z,99564.55
2023-02-11T10:12:36.393Z,99555.46
2023-02-11T10:15:31.092Z,99546.80
2023-02-11T10:18:27.338Z,99536.38
2023-02-11T10:21:10.887Z,99539.77
2023-02-11T10:23:47.808Z,99536.21
2023-02-11T10:26:28.090Z,99533.52
2023-02-11T10:29:30.797Z,99531.67
2023-02-11T10:32:25.350Z,99531.92
2023-02-11T10:35:19.806Z,99528.79
2023-02-11T10:37:58.886Z,99523.95
2023-02-11T10:40:35.628Z,99522.80
2023-02-11T10:43:16.578Z,99521.75
2023-02-11T10:45:53.194Z,99510.54
2023-02-11T10:49:01.455Z,99505.89
2023-02-11T10:51:38.320Z,99493.76
2023-02-11T10:54:38.791Z,99487.19
2023-02-11T10:57:36.898Z,99481.55
2023-02-11T11:00:34.531Z,99475.04
2023-02-11T11:03:12.250Z,99466.90
2023-02-11T11:05:59.809Z,99460.80
2023-02-11T11:08:41.487Z,99450.24
2023-02-11T11:11:28.347Z,99440.92
2023-02-11T11:14:32.586Z,99437.58
2023-02-11T11:17:20.823Z,99433.16
2023-02-11T11:20:34.967Z,99426.33
2023-02-11T11:23:56.764Z,99426.02
2023-02-11T11:27:09.208Z,99422.88
2023-02-11T11:29:57.299Z,99413.77
2023-02-11T11:32:58.137Z,99406.89
2023-02-11T11:35:36.126Z,99404.58
2023-02-11T11:38:20.528Z,99394.73
2023-02-11T11:41:29.544Z,99392.42
2023-02-11T11:44:28.282Z,99392.36
2023-02-11T11:47:12.782Z,99388.80
2023-02-11T11:50:14.873Z,99385.20
2023-02-11T11:53:12.821Z,99379.00
2023-02-11T11:56:04.761Z,99382.36
2023-02-11T11:58:54.903Z,99383.60
2023-02-11T12:01:54.099Z,99378.21
2023-02-11T12:05:03.783Z,99372.11
2023-02-11T12:08:23.681Z,99364.73
2023-02-11T12:11:40.112Z,99357.99
2023-02-11T12:14:37.132Z,99356.66
2023-02-11T12:17:13.337Z,99348.81
2023-02-11T12:20:18.330Z,99343.35
2023-02-11T12:23:13.767Z,99334.52
2023-02-11T12:26:02.168Z,99322.96
2023-02-11T12:29:05.380Z,99328.59
2023-02-11T12:32:30.634Z,99328.78
2023-02-11T12:38:35.559Z,99324.48
2023-02-11T12:41:16.745Z,99322.39
2023-02-11T12:43:46.092Z,99324.66
2023-02-11T12:46:55.161Z,99326.03
2023-02-11T12:50:25.018Z,99321.38
2023-02-11T12:53:46.552Z,99313.29
2023-02-11T12:56:50.237Z,99305.73
2023-02-11T13:00:16.352Z,99302.10
2023-02-11T13:03:27.135Z,99296.27
2023-02-11T13:06:41.773Z,99290.41
2023-02-11T13:12:56.875Z,99277.80
2023-02-11T13:15:38.255Z,99275.70
2023-02-11T13:18:23.653Z,99272.91
2023-02-11T13:21:07.966Z,99270.56
2023-02-11T13:24:26.756Z,99260.55
2023-02-11T13:27:50.944Z,99257.45
2023-02-11T13:31:09.407Z,99261.48
2023-02-11T13:33:54.069Z,99256.83
2023-02-11T13:36:42.100Z,99257.98
2023-02-11T13:39:30.305Z,99258.46
2023-02-11T13:42:39.642Z,99259.95
2023-02-11T13:45:42.971Z,99258.42
2023-02-11T13:49:01.715Z,99258.83
2023-02-11T13:51:56.160Z,99266.21
2023-02-11T13:54:46.133Z,99260.69
2023-02-11T13:57:34.126Z,99257.08
2023-02-11T14:00:35.418Z,99257.34
2023-02-11T14:03:32.066Z,99259.67
2023-02-11T14:06:27.511Z,99249.98
2023-02-11T14:09:19.643Z,99248.31
2023-02-11T14:12:30.963Z,99239.19
2023-02-11T14:15:13.692Z,99237.27
2023-02-11T14:17:53.524Z,99224.73
2023-02-11T14:20:47.715Z,99215.13
2023-02-11T14:23:27.697Z,99216.27
2023-02-11T14:26:24.639Z,99217.05
2023-02-11T14:29:22.221Z,99215.50
2023-02-11T14:32:26.671Z,99216.16
2023-02-11T14:35:35.559Z,99209.14
2023-02-11T14:38:22.339Z,99208.98
2023-02-11T14:41:41.025Z,99204.45
2023-02-11T14:44:34.127Z,99209.33
2023-02-11T14:47:03.951Z,99210.17
2023-02-11T14:49:45.417Z,99211.92
2023-02-11T14:52:27.727Z,99219.15
2023-02-11T14:55:09.779Z,99215.70
2023-02-11T14:57:43.085Z,99211.15
2023-02-11T15:00:23.975Z,99215.02
2023-02-11T15:02:54.059Z,99215.52
2023-02-11T15:05:27.975Z,99211.05
2023-02-11T15:08:09.093Z,99216.44
2023-02-11T15:10:45.738Z,99220.72
2023-02-11T15:13:22.579Z,99222.64
2023-02-11T15:15:58.501Z,99220.54
2023-02-11T15:18:40.054Z,99222.05
2023-02-11T15:21:10.946Z,99220.02
2023-02-11T15:23:45.359Z,99223.13
2023-02-11T15:26:21.122Z,99223.44
2023-02-11T15:28:52.689Z,99220.34
2023-02-11T15:31:30.786Z,99222.35
2023-02-11T15:34:12.875Z,99219.56
2023-02-11T15:36:42.767Z,99211.46
2023-02-11T15:39:35.117Z,99208.73
2023-02-11T15:42:27.420Z,99205.77
2023-02-11T15:45:15.234Z,99198.79
2023-02-11T15:47:54.014Z,99185.46
2023-02-11T15:50:35.609Z,99180.12
2023-02-11T15:53:25.378Z,99179.02
2023-02-11T15:56:24.852Z,99184.97
2023-02-11T15:58:57.708Z,99186.33
2023-02-11T16:01:36.770Z,99182.15
2023-02-11T16:04:07.355Z,99177.09
2023-02-11T16:06:40.874Z,99173.35
2023-02-11T16:09:13.717Z,99171.17
2023-02-11T16:11:49.196Z,99168.20
2023-02-11T16:14:27.637Z,99171.66
2023-02-11T16:17:09.926Z,99161.79
2023-02-11T16:19:47.970Z,99161.88
2023-02-11T16:22:26.611Z,99164.81
2023-02-11T16:25:02.380Z,99165.67
2023-02-11T16:27:42.426Z,99168.50
2023-02-11T16:30:35.421Z,99170.35
2023-02-11T16:33:05.874Z,99170.90
2023-02-11T16:35:37.787Z,99170.84
2023-02-11T16:38:07.616Z,99172.66
2023-02-11T16:40:37.724Z,99172.13
2023-02-11T16:43:10.024Z,99172.62
2023-02-11T16:45:46.757Z,99171.75
2023-02-11T16:48:20.539Z,99175.03
2023-02-11T16:50:53.688Z,99178.08
2023-02-11T16:53:25.558Z,99178.13
2023-02-11T16:56:00.895Z,99169.08
2023-02-11T16:58:36.830Z,99161.26
2023-02-11T17:01:07.518Z,99161.64
2023-02-11T17:03:42.986Z,99159.56
2023-02-11T17:06:13.984Z,99161.07
2023-02-11T17:08:44.910Z,99168.61
2023-02-11T17:11:17.262Z,99168.76
2023-02-11T17:13:47.711Z,99170.95
2023-02-11T17:16:20.951Z,99171.88
2023-02-11T17:18:50.421Z,99165.83
2023-02-11T17:21:24.199Z,99163.98
2023-02-11T17:23:54.288Z,99157.67
2023-02-11T17:26:23.579Z,99154.14
2023-02-11T17:28:55.756Z,99150.38
2023-02-11T17:31:26.229Z,99141.96
2023-02-11T17:33:57.376Z,99129.26
2023-02-11T17:36:27.950Z,99112.29
2023-02-11T17:39:01.832Z,99099.64
2023-02-11T17:41:31.032Z,99099.00
2023-02-11T17:44:03.683Z,99114.31
2023-02-11T17:46:37.034Z,99118.34
2023-02-11T17:49:06.571Z,99129.04
2023-02-11T17:51:38.425Z,99139.84
2023-02-11T17:54:14.406Z,99142.80
2023-02-11T17:56:43.818Z,99144.68
2023-02-11T17:59:15.492Z,99147.77
2023-02-11T18:01:52.527Z,99152.08
2023-02-11T18:04:22.183Z,99148.75
2023-02-11T18:06:54.157Z,99154.51
2023-02-11T18:09:26.914Z,99155.77
2023-02-11T18:11:56.251Z,99159.55
2023-02-11T18:14:25.736Z,99163.79
2023-02-11T18:16:55.352Z,99165.35
2023-02-11T18:19:24.596Z,99169.59
2023-02-11T18:21:54.399Z,99169.34
2023-02-11T18:24:24.212Z,99166.56
2023-02-11T18:26:55.649Z,99159.94
2023-02-11T18:29:25.907Z,99152.87
2023-02-11T18:31:57.139Z,99145.92
2023-02-11T18:34:26.843Z,99147.61
2023-02-11T18:36:57.452Z,99154.73
2023-02-11T18:39:27.783Z,99150.30
2023-02-11T18:42:00.116Z,99145.09
2023-02-11T18:44:33.146Z,99146.37
2023-02-11T18:47:06.615Z,99147.33
2023-02-11T18:49:37.206Z,99144.74
2023-02-11T18:52:09.726Z,99142.14
2023-02-11T18:54:41.436Z,99144.13
2023-02-11T18:57:11.237Z,99147.75
2023-02-11T19:00:02.120Z,99148.78
2023-02-11T19:02:38.456Z,99136.01
2023-02-11T19:05:08.667Z,99139.34
2023-02-11T19:07:44.888Z,99139.86
2023-02-11T19:10:14.767Z,99143.83
2023-02-11T19:12:45.974Z,99143.90
2023-02-11T19:15:15.233Z,99149.54
2023-02-11T19:17:45.696Z,99146.83
2023-02-11T19:20:22.008Z,99150.44
2023-02-11T19:22:51.882Z,99146.70
2023-02-11T19:25:21.630Z,99146.54
2023-02-11T19:27:53.585Z,99144.89
2023-02-11T19:30:30.122Z,99141.06
2023-02-11T19:33:05.585Z,99142.96
2023-02-11T19:36:03.906Z,99142.62
2023-02-11T19:38:38.802Z,99143.58
2023-02-11T19:41:12.438Z,99146.08
2023-02-11T19:43:43.696Z,99143.71
2023-02-11T19:46:15.822Z,99141.05
2023-02-11T19:48:45.512Z,99130.67
2023-02-11T19:51:16.193Z,99126.08
2023-02-11T19:53:51.836Z,99125.67
2023-02-11T19:56:22.905Z,99120.47
2023-02-11T19:58:52.749Z,99116.80
2023-02-11T20:01:25.120Z,99116.36
2023-02-11T20:04:00.870Z,99115.30
2023-02-11T20:06:32.588Z,99111.34
2023-02-11T20:09:07.835Z,99106.05
2023-02-11T20:11:40.159Z,99100.30
2023-02-11T20:14:13.404Z,99098.02
2023-02-11T20:16:49.266Z,99098.55
2023-02-11T20:19:22.375Z,99096.05
2023-02-11T20:21:56.275Z,99092.63
2023-02-11T20:24:26.110Z,99084.40
2023-02-11T20:26:56.401Z,99081.84
2023-02-11T20:29:31.526Z,99076.97
2023-02-11T20:32:00.868Z,99081.44
2023-02-11T20:34:35.068Z,99082.02
2023-02-11T20:37:05.497Z,99080.91
2023-02-11T20:39:35.939Z,99071.55
2023-02-11T20:42:05.341Z,99065.40
2023-02-11T20:44:37.375Z,99068.02
2023-02-11T20:47:07.042Z,99073.48
2023-02-11T20:49:38.001Z,99071.91
2023-02-11T20:52:11.594Z,99067.98
2023-02-11T20:54:41.703Z,99066.48
2023-02-11T20:57:11.621Z,99065.17
2023-02-11T20:59:43.670Z,99068.55
2023-02-11T21:02:13.953Z,99063.95
2023-02-11T21:04:47.275Z,99064.11
2023-02-11T21:07:16.732Z,99056.84
2023-02-11T21:09:47.290Z,99056.73
2023-02-11T21:12:19.524Z,99059.97
2023-02-11T21:14:48.982Z,99061.78
2023-02-11T21:17:33.603Z,99058.95
2023-02-11T21:20:02.684Z,99044.49
2023-02-11T21:22:58.532Z,99041.30
2023-02-11T21:25:42.276Z,99042.16
2023-02-11T21:28:12.199Z,99043.48
2023-02-11T21:30:42.308Z,99041.67
2023-02-11T21:33:12.827Z,99043.23
2023-02-11T21:35:43.325Z,99049.73
2023-02-11T21:38:13.535Z,99054.08
2023-02-11T21:40:46.968Z,99052.48
2023-02-11T21:43:21.486Z,99053.09
2023-02-11T21:45:55.163Z,99049.55
2023-02-11T21:48:26.326Z,99048.85
2023-02-11T21:50:56.382Z,99048.89
2023-02-11T21:53:30.267Z,99052.09
2023-02-11T21:56:05.603Z,99047.25
2023-02-11T21:58:37.874Z,99048.52
2023-02-11T22:01:19.186Z,99049.75
2023-02-11T22:03:49.960Z,99047.98
2023-02-11T22:06:26.735Z,99046.58
2023-02-11T22:08:57.044Z,99047.94
2023-02-11T22:11:26.524Z,99045.61
2023-02-11T22:13:59.530Z,99048.92
2023-02-11T22:16:30.042Z,99058.94
2023-02-11T22:19:02.771Z,99058.48
2023-02-11T22:21:33.046Z,99054.54
2023-02-11T22:24:05.192Z,99053.48
2023-02-11T22:26:35.036Z,99056.48
2023-02-11T22:29:07.716Z,99051.85
2023-02-11T22:31:37.450Z,99050.58
2023-02-11T22:34:07.732Z,99041.14
2023-02-11T22:36:39.942Z,99046.98
2023-02-11T22:39:13.599Z,99048.45
2023-02-11T22:41:45.013Z,99054.53
2023-02-11T22:44:17.674Z,99056.79
2023-02-11T22:46:48.631Z,99053.39
2023-02-11T22:49:20.464Z,99051.16
2023-02-11T22:51:52.788Z,99057.27
2023-02-11T22:54:28.537Z,99054.45
2023-02-11T22:56:57.693Z,99052.60
2023-02-11T22:59:27.261Z,99054.30
2023-02-11T23:01:58.016Z,99059.27
2023-02-11T23:04:29.545Z,99059.20
2023-02-11T23:06:59.143Z,99056.04
2023-02-11T23:09:28.474Z,99054.64
2023-02-11T23:11:58.882Z,99057.64
2023-02-11T23:14:33.574Z,99050.13
2023-02-11T23:17:04.117Z,99046.67
2023-02-11T23:19:34.010Z,99042.50
2023-02-11T23:22:04.413Z,99042.00
2023-02-11T23:24:33.648Z,99040.61
2023-02-11T23:27:03.562Z,99038.98
2023-02-11T23:29:33.022Z,99036.53
2023-02-11T23:32:03.228Z,99037.58
2023-02-11T23:34:33.018Z,99035.07
2023-02-11T23:37:03.052Z,99037.41
2023-02-11T23:39:33.251Z,99038.38
2023-02-11T23:42:03.933Z,99039.34
2023-02-11T23:44:34.834Z,99032.81
2023-02-11T23:47:04.920Z,99031.17
2023-02-11T23:49:34.745Z,99028.54
2023-02-11T23:52:05.224Z,99029.58
2023-02-11T23:54:35.487Z,99027.13
2023-02-11T23:57:04.725Z,99031.48
2023-02-11T23:59:34.326Z,99033.45
